x

South Santa Rosa Is. Ca (46069) Wave Buoy

9:50pm - Wed 22nd Nov 2017 All times are PST. -8 hours from GMT.

  • Sig Wave height 4.6ft
  • Swell Direction
  • Peak Period 10s
  • Average Period 6s
  • Wind
    16mph, 20mph gusts
  • Sea Temp 62°f
  • Air Temp 62°f
  • Sea Pressure 1017.1mb
  • South Santa Rosa Is. Ca
  • South Santa Rosa Is. Ca

More Historic Weather Station data

Upgrade to MSW Pro to gain access to the past 30 days of data for over 8000 Wavebouys and Weather Stations around the globe.

Join

Comparision Forecast

View Surf forecast
   
Wed 11/22 9:50pm 4.5ft 10s 6s 16 20 mph 1017.1mb 62f 62f
8:50pm 4.5ft 10s 6s 16 18 mph 1017mb 62f 62f
7:50pm 4ft 11s 6s 16 18 mph 1016.7mb 62f 62f
6:50pm 4ft 9s 7s 13 18 mph 1016.6mb 62f 63f
5:50pm 4ft 11s 7s 16 18 mph 1016.4mb 62f 63f
4:50pm 4ft 10s 6s 13 16 mph 1015.9mb 62f 63f
3:50pm 3.5ft 11s 7s 13 16 mph 1015.8mb 62f 64f
2:50pm 4ft 10s 8s 11 13 mph 1015.9mb 62f 64f
1:50pm 3.5ft 11s 7s 11 11 mph 1016mb 62f 64f
12:50pm 3.5ft 11s 7s 9 11 mph 1016.3mb 62f 64f
11:50am 3.5ft 11s 7s 9 11 mph 1017mb 62f 64f
10:50am 3.5ft 15s 6s 7 7 mph 1017.6mb 62f 64f
9:50am 3.5ft 11s 6s 7 7 mph 1018.1mb 61f 63f
8:50am 3.5ft 11s 6s 9 11 mph 1017.9mb 61f 63f
7:50am 3.5ft 11s 6s 9 11 mph 1017.4mb 61f 63f
6:50am 3.5ft 12s 6s 13 16 mph 1016.9mb 61f 62f
5:50am 3.5ft 11s 7s 13 16 mph 1016.3mb 61f 62f
4:50am 3.5ft 11s 7s 11 13 mph 1016.3mb 61f 62f
3:50am 3.5ft 11s 6s 11 13 mph 1016.3mb 61f 62f
2:50am 3.5ft 11s 6s 16 20 mph 1016.4mb 61f 62f
1:50am 3.5ft 11s 6s 16 18 mph 1016.4mb 61f 63f
12:50am 3.5ft 12s 6s 16 18 mph 1016.9mb 61f 63f
Tue 11/21 10:50pm 3.5ft 12s 7s 16 18 mph 1017.9mb 61f 62f
9:50pm 4ft 12s 7s 11 13 mph 1017.8mb 61f 63f
8:50pm 4.5ft 12s 8s 13 16 mph 1017.5mb 61f 62f
7:50pm 3.5ft 11s 7s 9 11 mph 1017.2mb 61f 62f
6:50pm 3.5ft 12s 7s 7 9 mph 1017.1mb 62f 62f
5:50pm 4ft 12s 8s 4 7 mph 1016.7mb 62f 62f
4:50pm 3.5ft 12s 8s 9 11 mph 1016.4mb 62f 62f
3:50pm 4ft 11s 9s 4 7 mph 1016mb 63f 64f
2:50pm 3.5ft 12s 10s  -  2 mph 1015.8mb 63f 64f
1:50pm 3.5ft 12s 9s 4 7 mph 1016.3mb 63f 63f
11:50am 3.5ft 11s 9s 4 7 mph 1017.8mb 62f 62f
10:50am 3.5ft 12s 9s 7 9 mph 1018.9mb 61f 62f
9:50am 3.5ft 11s 8s 7 9 mph 1018.9mb 61f 62f
8:50am 3.5ft 13s 8s 7 7 mph 1018.6mb 61f 61f
7:50am 4ft 12s 8s 2 4 mph 1018.1mb 61f 63f
6:50am 3.5ft 11s 8s 2 4 mph 1017.3mb 61f 62f
5:50am 3.5ft 14s 8s 4 4 mph 1016.6mb 61f 62f
4:50am 3ft 15s 8s 4 4 mph 1015.9mb 61f 62f
3:50am 3.5ft 15s 8s 4 7 mph 1015.6mb 61f 62f
2:50am 3.5ft 14s 7s 2 4 mph 1015.9mb 61f 62f
1:50am 3.5ft 12s 6s 13 18 mph 1015.6mb 61f 63f
12:50am 3.5ft 13s 5s 13 16 mph 1015.8mb 61f 62f
Mon 11/20 11:50pm 4ft 12s 5s 16 18 mph 1015.8mb 61f 62f
10:50pm 4ft 12s 5s 16 18 mph 1016.2mb 61f 62f
9:50pm 4.5ft 12s 5s 20 22 mph 1015.9mb 61f 62f
8:50pm 4.5ft 5s 5s 22 27 mph 1015.8mb 61f 62f
7:50pm 4.5ft 12s 5s 20 22 mph 1016.4mb 61f 62f
6:50pm 4.5ft 13s 5s 20 22 mph 1016.4mb 61f 62f
4:50pm 4ft 13s 5s 20 22 mph 1016mb 61f 62f
3:50pm 4ft 14s 5s 20 22 mph 1015.9mb 61f 62f
2:50pm 4.5ft 13s 5s 16 18 mph 1016.2mb 61f 63f
1:50pm 4.5ft 14s 5s 20 25 mph 1016.3mb 61f 62f
12:50pm 5ft 14s 5s 20 25 mph 1016.2mb 60f 62f
11:50am 4.5ft 13s 5s 20 25 mph 1016.9mb 60f 62f
10:50am 4.5ft 15s 5s 20 25 mph 1017.9mb 60f 61f
9:50am 4.5ft 15s 5s 18 22 mph 1018mb 60f 61f
8:50am 4.5ft 14s 5s 18 20 mph 1017.3mb 60f 60f
7:50am 5ft 14s 5s 18 22 mph 1016.8mb 60f 60f
6:50am 4.5ft 15s 5s 20 25 mph 1017mb 60f 60f
5:50am 4.5ft 14s 5s 20 22 mph 1016.4mb 60f 61f
4:50am 4.5ft 16s 5s 20 25 mph 1016mb 60f 61f
3:50am 4.5ft 6s 6s 18 22 mph 1015.3mb 60f 60f
2:50am 4.5ft 6s 6s 13 16 mph 1014.9mb 59f 59f
1:50am 4.5ft 6s 5s 16 20 mph 1015.5mb 59f 59f
12:50am 5ft 6s 5s 20 25 mph 1016mb 59f 59f
Sun 11/19 11:50pm 5ft 6s 5s 18 20 mph 1016.5mb 60f 59f
10:50pm 5ft 5s 5s 20 25 mph 1016.6mb 60f 59f
9:50pm 5ft 5s 5s 25 29 mph 1016.5mb 60f 59f
8:50pm 5ft 5s 5s 20 25 mph 1017mb 60f 59f
7:50pm 5ft 6s 5s 20 25 mph 1017.1mb 60f 59f
6:50pm 5ft 5s 5s 20 25 mph 1017mb 60f 60f
5:50pm 4.5ft 11s 5s 22 27 mph 1016.6mb 61f 60f
4:50pm 4.5ft 5s 5s 22 27 mph 1016.3mb 61f 60f
3:50pm 4ft 9s 5s 20 22 mph 1015.4mb 61f 59f
2:50pm 3.5ft 11s 5s 20 25 mph 1015.5mb 61f 59f
1:50pm 4ft 15s 5s 20 22 mph 1015.6mb 61f 59f
12:50pm 4.5ft 12s 5s 20 25 mph 1016.4mb 61f 59f
11:50am 4.5ft 10s 5s 18 20 mph 1017.1mb 61f 58f
10:50am 4.5ft 10s 5s 20 25 mph 1018.5mb 61f 59f
9:50am 4.5ft 5s 5s 18 22 mph 1018.9mb 61f 58f
8:50am 5ft 5s 5s 18 22 mph 1018.9mb 61f 58f
7:50am 5ft 6s 5s 20 25 mph 1018.3mb 61f 58f